Terminal Aerodrome Forecast
Issued by NWS

Home | Current Version | Previous Version | Text Only | Print | Product List | Glossary On
Versions: 1 2 3 4 5 6 7 8 9 10 11 12 13
000
FTUS43 KLSX 312320
TAFCPS
TAF
KCPS 312320Z 0100/0124 16007KT P6SM VCTS SCT040CB BKN100
     FM010200 15005KT P6SM SCT250
     FM010800 VRB03KT 3SM BR SCT250
     FM011400 19007KT P6SM SCT050=

USA.gov is the U.S. government's official web portal to all federal, state and local government web resources and services.